Terminal Aerodrome Forecast
Issued by NWS

Home | Current Version | Previous Version | Text Only | Print | Product List | Glossary On
Versions: 1 2 3 4 5 6 7 8 9 10 11 12 13 14 15
000
FTUS46 KLOX 241700
TAFBUR
TAF
KBUR 241735Z 2418/2518 00000KT P6SM SKC
     FM242000 17008KT P6SM SKC
     FM250300 VRB03KT P6SM FEW200
     FM251200 VRB03KT P6SM BKN015=

USA.gov is the U.S. government's official web portal to all federal, state and local government web resources and services.